sensor_id;sensor_type;location;lat;lon;timestamp;temperature;humidity
3626;DHT22;1827;50.534;8.316;2023-05-16T00:01:17;10.10;51.90
3626;DHT22;1827;50.534;8.316;2023-05-16T00:03:43;10.10;5.30
3626;DHT22;1827;50.534;8.316;2023-05-16T00:06:09;9.90;15.20
3626;DHT22;1827;50.534;8.316;2023-05-16T00:08:35;9.90;34.10
3626;DHT22;1827;50.534;8.316;2023-05-16T00:11:01;9.90;30.30
3626;DHT22;1827;50.534;8.316;2023-05-16T00:13:27;9.80;47.70
3626;DHT22;1827;50.534;8.316;2023-05-16T00:15:54;9.80;99.40
3626;DHT22;1827;50.534;8.316;2023-05-16T00:18:20;10.00;99.90
3626;DHT22;1827;50.534;8.316;2023-05-16T00:20:48;10.00;99.90
3626;DHT22;1827;50.534;8.316;2023-05-16T00:23:14;10.00;99.90
3626;DHT22;1827;50.534;8.316;2023-05-16T00:25:39;10.00;99.90
3626;DHT22;1827;50.534;8.316;2023-05-16T00:28:05;10.10;99.90
3626;DHT22;1827;50.534;8.316;2023-05-16T00:30:31;10.10;99.90
3626;DHT22;1827;50.534;8.316;2023-05-16T00:32:57;10.20;99.90
3626;DHT22;1827;50.534;8.316;2023-05-16T00:35:22;10.20;99.90
3626;DHT22;1827;50.534;8.316;2023-05-16T00:37:49;10.30;99.90
3626;DHT22;1827;50.534;8.316;2023-05-16T00:40:14;10.30;99.90
3626;DHT22;1827;50.534;8.316;2023-05-16T00:42:41;10.30;99.90
3626;DHT22;1827;50.534;8.316;2023-05-16T00:45:07;10.30;99.90
3626;DHT22;1827;50.534;8.316;2023-05-16T00:47:33;10.30;99.90
3626;DHT22;1827;50.534;8.316;2023-05-16T00:49:58;10.40;99.90
3626;DHT22;1827;50.534;8.316;2023-05-16T00:52:24;10.40;99.90
3626;DHT22;1827;50.534;8.316;2023-05-16T00:54:50;10.40;99.90
3626;DHT22;1827;50.534;8.316;2023-05-16T00:57:15;10.50;99.90
3626;DHT22;1827;50.534;8.316;2023-05-16T00:59:43;10.50;99.90
3626;DHT22;1827;50.534;8.316;2023-05-16T01:02:09;10.60;99.90
3626;DHT22;1827;50.534;8.316;2023-05-16T01:04:35;10.60;96.80
3626;DHT22;1827;50.534;8.316;2023-05-16T01:07:01;10.60;60.80
3626;DHT22;1827;50.534;8.316;2023-05-16T01:09:26;10.50;78.20
3626;DHT22;1827;50.534;8.316;2023-05-16T01:11:55;10.50;98.40
3626;DHT22;1827;50.534;8.316;2023-05-16T01:25:03;10.50;99.90
3626;DHT22;1827;50.534;8.316;2023-05-16T01:27:29;10.50;99.90
3626;DHT22;1827;50.534;8.316;2023-05-16T01:29:56;10.50;99.90
3626;DHT22;1827;50.534;8.316;2023-05-16T01:32:22;10.60;99.90
3626;DHT22;1827;50.534;8.316;2023-05-16T01:34:50;10.60;99.90
3626;DHT22;1827;50.534;8.316;2023-05-16T01:37:31;10.60;99.90
3626;DHT22;1827;50.534;8.316;2023-05-16T01:40:06;10.60;99.90
3626;DHT22;1827;50.534;8.316;2023-05-16T01:42:35;10.60;99.90
3626;DHT22;1827;50.534;8.316;2023-05-16T01:47:33;10.70;99.90
3626;DHT22;1827;50.534;8.316;2023-05-16T01:52:53;10.70;99.90
3626;DHT22;1827;50.534;8.316;2023-05-16T01:55:22;10.70;99.90
3626;DHT22;1827;50.534;8.316;2023-05-16T01:57:48;10.90;99.90
3626;DHT22;1827;50.534;8.316;2023-05-16T02:00:15;11.00;99.90
3626;DHT22;1827;50.534;8.316;2023-05-16T02:02:40;11.00;99.90
3626;DHT22;1827;50.534;8.316;2023-05-16T02:05:07;11.00;99.90
3626;DHT22;1827;50.534;8.316;2023-05-16T02:07:35;11.10;99.90
3626;DHT22;1827;50.534;8.316;2023-05-16T02:10:00;11.20;23.30
3626;DHT22;1827;50.534;8.316;2023-05-16T02:12:26;11.20;1.00
3626;DHT22;1827;50.534;8.316;2023-05-16T02:14:51;11.20;1.00
3626;DHT22;1827;50.534;8.316;2023-05-16T02:17:18;11.20;1.00
3626;DHT22;1827;50.534;8.316;2023-05-16T02:19:44;11.20;1.00
3626;DHT22;1827;50.534;8.316;2023-05-16T02:22:09;11.20;1.00
3626;DHT22;1827;50.534;8.316;2023-05-16T02:24:35;11.30;1.00
3626;DHT22;1827;50.534;8.316;2023-05-16T02:27:00;11.40;1.00
3626;DHT22;1827;50.534;8.316;2023-05-16T02:29:26;11.30;1.00
3626;DHT22;1827;50.534;8.316;2023-05-16T02:31:52;11.40;1.00
3626;DHT22;1827;50.534;8.316;2023-05-16T02:34:17;11.40;1.00
3626;DHT22;1827;50.534;8.316;2023-05-16T02:36:43;11.40;1.00
3626;DHT22;1827;50.534;8.316;2023-05-16T02:39:08;11.40;1.00
3626;DHT22;1827;50.534;8.316;2023-05-16T02:41:34;11.40;1.00
3626;DHT22;1827;50.534;8.316;2023-05-16T02:44:00;11.40;1.00
3626;DHT22;1827;50.534;8.316;2023-05-16T02:46:28;11.30;1.00
3626;DHT22;1827;50.534;8.316;2023-05-16T02:48:55;11.30;1.00
3626;DHT22;1827;50.534;8.316;2023-05-16T02:51:22;11.30;1.00
3626;DHT22;1827;50.534;8.316;2023-05-16T02:53:48;11.40;1.00
3626;DHT22;1827;50.534;8.316;2023-05-16T02:56:15;11.30;1.00
3626;DHT22;1827;50.534;8.316;2023-05-16T02:58:41;11.30;1.00
3626;DHT22;1827;50.534;8.316;2023-05-16T03:01:07;11.20;1.00
3626;DHT22;1827;50.534;8.316;2023-05-16T03:03:33;11.10;1.00
3626;DHT22;1827;50.534;8.316;2023-05-16T03:06:01;11.10;9.50
3626;DHT22;1827;50.534;8.316;2023-05-16T03:08:26;11.10;55.30
3626;DHT22;1827;50.534;8.316;2023-05-16T03:10:52;11.10;99.90
3626;DHT22;1827;50.534;8.316;2023-05-16T03:13:17;11.10;99.90
3626;DHT22;1827;50.534;8.316;2023-05-16T03:15:43;11.10;99.90
3626;DHT22;1827;50.534;8.316;2023-05-16T03:18:09;11.00;99.90
3626;DHT22;1827;50.534;8.316;2023-05-16T03:20:36;10.90;99.90
3626;DHT22;1827;50.534;8.316;2023-05-16T03:23:02;10.90;99.90
3626;DHT22;1827;50.534;8.316;2023-05-16T03:25:28;10.90;99.90
3626;DHT22;1827;50.534;8.316;2023-05-16T03:27:56;10.90;99.90
3626;DHT22;1827;50.534;8.316;2023-05-16T03:30:23;11.00;99.90
3626;DHT22;1827;50.534;8.316;2023-05-16T03:32:50;11.00;99.90
3626;DHT22;1827;50.534;8.316;2023-05-16T03:35:20;11.00;99.90
3626;DHT22;1827;50.534;8.316;2023-05-16T03:38:02;10.90;99.90
3626;DHT22;1827;50.534;8.316;2023-05-16T03:40:35;10.90;99.90
3626;DHT22;1827;50.534;8.316;2023-05-16T03:43:01;10.90;99.90
3626;DHT22;1827;50.534;8.316;2023-05-16T03:45:35;10.90;99.90
3626;DHT22;1827;50.534;8.316;2023-05-16T03:48:02;10.90;99.90
3626;DHT22;1827;50.534;8.316;2023-05-16T03:50:36;10.90;99.90
3626;DHT22;1827;50.534;8.316;2023-05-16T03:53:07;10.80;99.90
3626;DHT22;1827;50.534;8.316;2023-05-16T03:55:34;10.80;99.90
3626;DHT22;1827;50.534;8.316;2023-05-16T03:57:59;10.80;99.90
3626;DHT22;1827;50.534;8.316;2023-05-16T04:00:25;10.80;99.90
3626;DHT22;1827;50.534;8.316;2023-05-16T04:03:02;10.80;99.90
3626;DHT22;1827;50.534;8.316;2023-05-16T04:05:32;10.70;99.90
3626;DHT22;1827;50.534;8.316;2023-05-16T04:07:58;10.60;99.90
3626;DHT22;1827;50.534;8.316;2023-05-16T04:10:25;10.60;34.00
3626;DHT22;1827;50.534;8.316;2023-05-16T04:12:58;10.60;44.80
3626;DHT22;1827;50.534;8.316;2023-05-16T04:15:23;10.60;1.00
3626;DHT22;1827;50.534;8.316;2023-05-16T04:17:51;10.60;1.00
3626;DHT22;1827;50.534;8.316;2023-05-16T04:20:30;10.60;1.00
3626;DHT22;1827;50.534;8.316;2023-05-16T04:23:02;10.40;1.00
3626;DHT22;1827;50.534;8.316;2023-05-16T04:25:27;10.50;1.00
3626;DHT22;1827;50.534;8.316;2023-05-16T04:27:59;10.50;1.00
3626;DHT22;1827;50.534;8.316;2023-05-16T04:30:37;10.50;1.00
3626;DHT22;1827;50.534;8.316;2023-05-16T04:33:06;10.50;1.00
3626;DHT22;1827;50.534;8.316;2023-05-16T04:35:39;10.50;1.00
3626;DHT22;1827;50.534;8.316;2023-05-16T04:38:22;10.40;1.00
3626;DHT22;1827;50.534;8.316;2023-05-16T04:40:54;10.50;1.00
3626;DHT22;1827;50.534;8.316;2023-05-16T04:43:30;10.50;1.00
3626;DHT22;1827;50.534;8.316;2023-05-16T04:46:00;10.50;1.00
3626;DHT22;1827;50.534;8.316;2023-05-16T04:51:17;10.50;1.00
3626;DHT22;1827;50.534;8.316;2023-05-16T04:54:05;10.30;1.00
3626;DHT22;1827;50.534;8.316;2023-05-16T04:56:36;10.30;1.00
3626;DHT22;1827;50.534;8.316;2023-05-16T04:59:01;10.50;1.00
3626;DHT22;1827;50.534;8.316;2023-05-16T05:01:33;10.40;1.00
3626;DHT22;1827;50.534;8.316;2023-05-16T05:03:58;10.40;1.00
3626;DHT22;1827;50.534;8.316;2023-05-16T05:06:25;10.20;1.00
3626;DHT22;1827;50.534;8.316;2023-05-16T05:08:57;10.20;1.00
3626;DHT22;1827;50.534;8.316;2023-05-16T05:11:23;10.10;1.00
3626;DHT22;1827;50.534;8.316;2023-05-16T05:13:48;10.20;1.00
3626;DHT22;1827;50.534;8.316;2023-05-16T05:16:14;10.10;1.00
3626;DHT22;1827;50.534;8.316;2023-05-16T05:18:40;10.20;1.00
3626;DHT22;1827;50.534;8.316;2023-05-16T05:21:06;10.20;1.00
3626;DHT22;1827;50.534;8.316;2023-05-16T05:23:32;10.30;1.00
3626;DHT22;1827;50.534;8.316;2023-05-16T05:25:59;10.30;1.00
3626;DHT22;1827;50.534;8.316;2023-05-16T05:28:25;10.40;1.00
3626;DHT22;1827;50.534;8.316;2023-05-16T05:30:50;10.30;1.00
3626;DHT22;1827;50.534;8.316;2023-05-16T05:33:16;10.20;3.50
3626;DHT22;1827;50.534;8.316;2023-05-16T05:35:43;10.20;23.40
3626;DHT22;1827;50.534;8.316;2023-05-16T05:38:08;10.00;1.00
3626;DHT22;1827;50.534;8.316;2023-05-16T05:40:34;10.10;1.00
3626;DHT22;1827;50.534;8.316;2023-05-16T05:43:00;10.30;1.00
3626;DHT22;1827;50.534;8.316;2023-05-16T05:45:25;10.30;1.00
3626;DHT22;1827;50.534;8.316;2023-05-16T05:47:51;10.30;58.80
3626;DHT22;1827;50.534;8.316;2023-05-16T05:50:16;10.40;99.90
3626;DHT22;1827;50.534;8.316;2023-05-16T05:52:42;10.30;99.90
3626;DHT22;1827;50.534;8.316;2023-05-16T05:55:08;10.30;1.00
3626;DHT22;1827;50.534;8.316;2023-05-16T05:57:33;10.40;1.00
3626;DHT22;1827;50.534;8.316;2023-05-16T05:59:59;10.30;1.00
3626;DHT22;1827;50.534;8.316;2023-05-16T06:02:25;10.40;1.00
3626;DHT22;1827;50.534;8.316;2023-05-16T06:04:50;10.30;1.00
3626;DHT22;1827;50.534;8.316;2023-05-16T06:07:16;10.30;1.00
3626;DHT22;1827;50.534;8.316;2023-05-16T06:09:42;10.20;1.00
3626;DHT22;1827;50.534;8.316;2023-05-16T06:12:08;10.20;1.00
3626;DHT22;1827;50.534;8.316;2023-05-16T06:14:34;10.00;1.00
3626;DHT22;1827;50.534;8.316;2023-05-16T06:16:59;10.10;1.00
3626;DHT22;1827;50.534;8.316;2023-05-16T06:19:25;10.20;1.00
3626;DHT22;1827;50.534;8.316;2023-05-16T06:21:50;10.20;1.00
3626;DHT22;1827;50.534;8.316;2023-05-16T06:24:16;10.30;1.00
3626;DHT22;1827;50.534;8.316;2023-05-16T06:26:42;10.00;1.00
3626;DHT22;1827;50.534;8.316;2023-05-16T06:29:10;10.10;1.00
3626;DHT22;1827;50.534;8.316;2023-05-16T06:31:36;10.00;1.00
3626;DHT22;1827;50.534;8.316;2023-05-16T06:34:02;10.00;1.00
3626;DHT22;1827;50.534;8.316;2023-05-16T06:36:27;9.90;1.00
3626;DHT22;1827;50.534;8.316;2023-05-16T06:38:53;9.70;1.00
3626;DHT22;1827;50.534;8.316;2023-05-16T06:41:18;9.70;1.00
3626;DHT22;1827;50.534;8.316;2023-05-16T06:43:44;9.60;1.00
3626;DHT22;1827;50.534;8.316;2023-05-16T06:46:10;9.80;1.00
3626;DHT22;1827;50.534;8.316;2023-05-16T06:48:35;10.00;1.00
3626;DHT22;1827;50.534;8.316;2023-05-16T06:51:01;10.10;1.00
3626;DHT22;1827;50.534;8.316;2023-05-16T06:53:26;9.60;1.00
3626;DHT22;1827;50.534;8.316;2023-05-16T06:55:53;9.80;1.00
3626;DHT22;1827;50.534;8.316;2023-05-16T06:58:18;10.00;1.00
3626;DHT22;1827;50.534;8.316;2023-05-16T07:00:44;10.10;1.00
3626;DHT22;1827;50.534;8.316;2023-05-16T07:03:10;10.00;1.00
3626;DHT22;1827;50.534;8.316;2023-05-16T07:05:35;9.80;1.00
3626;DHT22;1827;50.534;8.316;2023-05-16T07:08:01;9.70;1.00
3626;DHT22;1827;50.534;8.316;2023-05-16T07:10:27;9.80;1.00
3626;DHT22;1827;50.534;8.316;2023-05-16T07:12:53;10.00;1.00
3626;DHT22;1827;50.534;8.316;2023-05-16T07:15:19;9.90;1.00
3626;DHT22;1827;50.534;8.316;2023-05-16T07:17:45;9.90;1.00
3626;DHT22;1827;50.534;8.316;2023-05-16T07:20:11;10.40;1.00
3626;DHT22;1827;50.534;8.316;2023-05-16T07:22:39;10.40;1.00
3626;DHT22;1827;50.534;8.316;2023-05-16T07:25:04;10.50;1.00
3626;DHT22;1827;50.534;8.316;2023-05-16T07:27:30;10.80;1.00
3626;DHT22;1827;50.534;8.316;2023-05-16T07:29:56;10.80;1.00
3626;DHT22;1827;50.534;8.316;2023-05-16T07:32:22;10.70;1.00
3626;DHT22;1827;50.534;8.316;2023-05-16T07:34:47;10.60;1.00
3626;DHT22;1827;50.534;8.316;2023-05-16T07:37:13;10.30;1.00
3626;DHT22;1827;50.534;8.316;2023-05-16T07:39:40;10.00;1.00
3626;DHT22;1827;50.534;8.316;2023-05-16T07:42:06;9.90;1.00
3626;DHT22;1827;50.534;8.316;2023-05-16T07:44:32;9.80;1.00
3626;DHT22;1827;50.534;8.316;2023-05-16T07:46:59;9.90;1.00
3626;DHT22;1827;50.534;8.316;2023-05-16T07:49:25;10.00;1.00
3626;DHT22;1827;50.534;8.316;2023-05-16T07:51:50;10.10;1.00
3626;DHT22;1827;50.534;8.316;2023-05-16T07:54:16;9.80;1.00
3626;DHT22;1827;50.534;8.316;2023-05-16T07:56:41;9.70;1.00
3626;DHT22;1827;50.534;8.316;2023-05-16T07:59:07;9.70;1.00
3626;DHT22;1827;50.534;8.316;2023-05-16T08:01:33;9.60;1.00
3626;DHT22;1827;50.534;8.316;2023-05-16T08:03:59;9.70;1.00
3626;DHT22;1827;50.534;8.316;2023-05-16T08:06:24;9.90;1.00
3626;DHT22;1827;50.534;8.316;2023-05-16T08:08:50;10.00;1.00
3626;DHT22;1827;50.534;8.316;2023-05-16T08:11:16;9.70;1.00
3626;DHT22;1827;50.534;8.316;2023-05-16T08:13:42;10.10;1.00
3626;DHT22;1827;50.534;8.316;2023-05-16T08:16:07;10.40;1.00
3626;DHT22;1827;50.534;8.316;2023-05-16T08:18:35;10.20;1.00
3626;DHT22;1827;50.534;8.316;2023-05-16T08:21:00;10.70;1.00
3626;DHT22;1827;50.534;8.316;2023-05-16T08:23:26;10.40;1.00
3626;DHT22;1827;50.534;8.316;2023-05-16T08:25:51;10.60;1.00
3626;DHT22;1827;50.534;8.316;2023-05-16T08:28:18;10.90;1.00
3626;DHT22;1827;50.534;8.316;2023-05-16T08:30:44;10.90;1.00
3626;DHT22;1827;50.534;8.316;2023-05-16T08:33:10;11.40;1.00
3626;DHT22;1827;50.534;8.316;2023-05-16T08:35:35;11.90;1.00
3626;DHT22;1827;50.534;8.316;2023-05-16T08:38:01;11.20;1.00
3626;DHT22;1827;50.534;8.316;2023-05-16T08:40:27;12.10;1.00
3626;DHT22;1827;50.534;8.316;2023-05-16T08:42:53;12.50;1.00
3626;DHT22;1827;50.534;8.316;2023-05-16T08:45:19;13.00;1.00
3626;DHT22;1827;50.534;8.316;2023-05-16T08:47:45;12.70;99.90
3626;DHT22;1827;50.534;8.316;2023-05-16T08:50:14;12.80;99.90
3626;DHT22;1827;50.534;8.316;2023-05-16T08:52:40;12.40;99.90
3626;DHT22;1827;50.534;8.316;2023-05-16T08:55:06;12.30;99.90
3626;DHT22;1827;50.534;8.316;2023-05-16T08:57:34;12.10;99.90
3626;DHT22;1827;50.534;8.316;2023-05-16T09:00:00;11.60;99.90
3626;DHT22;1827;50.534;8.316;2023-05-16T09:02:26;11.50;99.90
3626;DHT22;1827;50.534;8.316;2023-05-16T09:04:52;11.30;99.90
3626;DHT22;1827;50.534;8.316;2023-05-16T09:07:18;11.70;99.90
3626;DHT22;1827;50.534;8.316;2023-05-16T09:09:44;12.00;99.90
3626;DHT22;1827;50.534;8.316;2023-05-16T09:12:09;11.70;99.90
3626;DHT22;1827;50.534;8.316;2023-05-16T09:14:36;11.30;99.90
3626;DHT22;1827;50.534;8.316;2023-05-16T09:17:02;11.20;99.90
3626;DHT22;1827;50.534;8.316;2023-05-16T09:19:31;12.20;99.90
3626;DHT22;1827;50.534;8.316;2023-05-16T09:21:57;12.80;99.90
3626;DHT22;1827;50.534;8.316;2023-05-16T09:24:22;13.60;99.90
3626;DHT22;1827;50.534;8.316;2023-05-16T09:26:49;13.90;99.90
3626;DHT22;1827;50.534;8.316;2023-05-16T09:29:15;13.90;99.90
3626;DHT22;1827;50.534;8.316;2023-05-16T09:31:41;14.80;99.90
3626;DHT22;1827;50.534;8.316;2023-05-16T09:34:07;13.90;99.90
3626;DHT22;1827;50.534;8.316;2023-05-16T09:36:33;13.50;99.90
3626;DHT22;1827;50.534;8.316;2023-05-16T09:38:59;13.40;99.90
3626;DHT22;1827;50.534;8.316;2023-05-16T09:41:25;13.90;99.90
3626;DHT22;1827;50.534;8.316;2023-05-16T09:43:50;13.10;99.90
3626;DHT22;1827;50.534;8.316;2023-05-16T09:46:16;13.90;99.90
3626;DHT22;1827;50.534;8.316;2023-05-16T09:48:44;14.40;99.90
3626;DHT22;1827;50.534;8.316;2023-05-16T09:51:11;14.00;99.90
3626;DHT22;1827;50.534;8.316;2023-05-16T09:53:37;14.40;99.90
3626;DHT22;1827;50.534;8.316;2023-05-16T09:56:03;14.10;99.90
3626;DHT22;1827;50.534;8.316;2023-05-16T09:58:30;13.80;99.90
3626;DHT22;1827;50.534;8.316;2023-05-16T10:00:57;14.00;99.90
3626;DHT22;1827;50.534;8.316;2023-05-16T10:03:24;14.00;99.90
3626;DHT22;1827;50.534;8.316;2023-05-16T10:05:49;13.90;99.90
3626;DHT22;1827;50.534;8.316;2023-05-16T10:08:19;13.10;99.90
3626;DHT22;1827;50.534;8.316;2023-05-16T10:10:45;14.00;99.90
3626;DHT22;1827;50.534;8.316;2023-05-16T10:13:12;13.20;99.90
3626;DHT22;1827;50.534;8.316;2023-05-16T10:15:39;14.40;99.90
3626;DHT22;1827;50.534;8.316;2023-05-16T10:18:06;14.30;99.90
3626;DHT22;1827;50.534;8.316;2023-05-16T10:20:36;14.70;99.90
3626;DHT22;1827;50.534;8.316;2023-05-16T10:23:02;15.10;99.90
3626;DHT22;1827;50.534;8.316;2023-05-16T10:25:31;13.30;99.90
3626;DHT22;1827;50.534;8.316;2023-05-16T10:27:58;14.10;99.90
3626;DHT22;1827;50.534;8.316;2023-05-16T10:30:23;14.10;99.90
3626;DHT22;1827;50.534;8.316;2023-05-16T10:32:49;15.50;99.90
3626;DHT22;1827;50.534;8.316;2023-05-16T10:35:19;15.40;99.90
3626;DHT22;1827;50.534;8.316;2023-05-16T10:37:45;14.20;99.90
3626;DHT22;1827;50.534;8.316;2023-05-16T10:40:11;14.10;99.90
3626;DHT22;1827;50.534;8.316;2023-05-16T10:42:36;13.70;99.90
3626;DHT22;1827;50.534;8.316;2023-05-16T10:45:08;14.10;99.90
3626;DHT22;1827;50.534;8.316;2023-05-16T10:47:33;14.00;99.90
3626;DHT22;1827;50.534;8.316;2023-05-16T10:49:59;14.60;99.90
3626;DHT22;1827;50.534;8.316;2023-05-16T10:52:32;14.30;99.90
3626;DHT22;1827;50.534;8.316;2023-05-16T10:54:58;13.80;99.90
3626;DHT22;1827;50.534;8.316;2023-05-16T10:57:26;14.50;99.90
3626;DHT22;1827;50.534;8.316;2023-05-16T10:59:52;15.80;99.90
3626;DHT22;1827;50.534;8.316;2023-05-16T11:02:26;15.50;99.90
3626;DHT22;1827;50.534;8.316;2023-05-16T11:04:54;15.60;99.90
3626;DHT22;1827;50.534;8.316;2023-05-16T11:07:20;15.70;99.90
3626;DHT22;1827;50.534;8.316;2023-05-16T11:09:52;15.50;99.90
3626;DHT22;1827;50.534;8.316;2023-05-16T11:12:19;15.20;99.90
3626;DHT22;1827;50.534;8.316;2023-05-16T11:14:49;15.70;99.90
3626;DHT22;1827;50.534;8.316;2023-05-16T11:17:19;16.10;99.90
3626;DHT22;1827;50.534;8.316;2023-05-16T11:24:50;17.40;99.90
3626;DHT22;1827;50.534;8.316;2023-05-16T11:27:20;17.90;99.90
3626;DHT22;1827;50.534;8.316;2023-05-16T11:29:46;18.40;99.90
3626;DHT22;1827;50.534;8.316;2023-05-16T11:32:14;17.50;99.90
3626;DHT22;1827;50.534;8.316;2023-05-16T11:34:43;16.90;99.90
3626;DHT22;1827;50.534;8.316;2023-05-16T11:37:10;16.10;99.90
3626;DHT22;1827;50.534;8.316;2023-05-16T11:39:36;16.00;99.90
3626;DHT22;1827;50.534;8.316;2023-05-16T11:42:01;17.10;99.90
3626;DHT22;1827;50.534;8.316;2023-05-16T11:44:27;16.30;99.90
3626;DHT22;1827;50.534;8.316;2023-05-16T11:46:53;15.50;99.90
3626;DHT22;1827;50.534;8.316;2023-05-16T11:49:19;15.60;99.90
3626;DHT22;1827;50.534;8.316;2023-05-16T11:51:45;15.60;99.90
3626;DHT22;1827;50.534;8.316;2023-05-16T11:54:11;16.70;99.90
3626;DHT22;1827;50.534;8.316;2023-05-16T11:56:38;16.90;99.90
3626;DHT22;1827;50.534;8.316;2023-05-16T11:59:04;16.10;99.90
3626;DHT22;1827;50.534;8.316;2023-05-16T12:01:33;16.40;99.90
3626;DHT22;1827;50.534;8.316;2023-05-16T12:03:59;17.20;99.90
3626;DHT22;1827;50.534;8.316;2023-05-16T12:06:25;16.70;99.90
3626;DHT22;1827;50.534;8.316;2023-05-16T12:08:51;18.00;99.90
3626;DHT22;1827;50.534;8.316;2023-05-16T12:11:18;17.80;99.90
3626;DHT22;1827;50.534;8.316;2023-05-16T12:13:43;18.00;99.90
3626;DHT22;1827;50.534;8.316;2023-05-16T12:16:10;15.90;99.90
3626;DHT22;1827;50.534;8.316;2023-05-16T12:18:36;15.50;99.90
3626;DHT22;1827;50.534;8.316;2023-05-16T12:21:03;15.70;99.90
3626;DHT22;1827;50.534;8.316;2023-05-16T12:23:31;16.40;99.90
3626;DHT22;1827;50.534;8.316;2023-05-16T12:25:57;16.50;99.90
3626;DHT22;1827;50.534;8.316;2023-05-16T12:28:25;16.10;99.90
3626;DHT22;1827;50.534;8.316;2023-05-16T12:30:55;17.30;99.90
3626;DHT22;1827;50.534;8.316;2023-05-16T12:33:21;18.60;99.90
3626;DHT22;1827;50.534;8.316;2023-05-16T12:35:47;18.80;99.90
3626;DHT22;1827;50.534;8.316;2023-05-16T12:38:13;19.30;99.90
3626;DHT22;1827;50.534;8.316;2023-05-16T12:40:40;18.60;99.90
3626;DHT22;1827;50.534;8.316;2023-05-16T12:43:15;17.90;99.90
3626;DHT22;1827;50.534;8.316;2023-05-16T12:45:41;17.30;99.90
3626;DHT22;1827;50.534;8.316;2023-05-16T12:48:11;15.90;99.90
3626;DHT22;1827;50.534;8.316;2023-05-16T12:50:37;17.50;99.90
3626;DHT22;1827;50.534;8.316;2023-05-16T12:53:03;18.60;99.90
3626;DHT22;1827;50.534;8.316;2023-05-16T12:55:28;18.60;99.90
3626;DHT22;1827;50.534;8.316;2023-05-16T12:57:57;16.50;99.90
3626;DHT22;1827;50.534;8.316;2023-05-16T13:00:25;15.30;99.90
3626;DHT22;1827;50.534;8.316;2023-05-16T13:02:50;15.50;99.90
3626;DHT22;1827;50.534;8.316;2023-05-16T13:05:16;16.40;99.90
3626;DHT22;1827;50.534;8.316;2023-05-16T13:07:42;15.80;99.90
3626;DHT22;1827;50.534;8.316;2023-05-16T13:10:11;15.00;99.90
3626;DHT22;1827;50.534;8.316;2023-05-16T13:12:37;15.20;99.90
3626;DHT22;1827;50.534;8.316;2023-05-16T13:15:03;15.30;99.90
3626;DHT22;1827;50.534;8.316;2023-05-16T13:17:29;15.80;99.90
3626;DHT22;1827;50.534;8.316;2023-05-16T13:19:55;17.30;99.90
3626;DHT22;1827;50.534;8.316;2023-05-16T13:22:20;18.30;99.90
3626;DHT22;1827;50.534;8.316;2023-05-16T13:24:46;18.30;99.90
3626;DHT22;1827;50.534;8.316;2023-05-16T13:27:14;18.60;99.90
3626;DHT22;1827;50.534;8.316;2023-05-16T13:29:40;18.30;99.90
3626;DHT22;1827;50.534;8.316;2023-05-16T13:32:06;18.80;99.90
3626;DHT22;1827;50.534;8.316;2023-05-16T13:34:32;19.50;99.90
3626;DHT22;1827;50.534;8.316;2023-05-16T13:36:58;18.10;99.90
3626;DHT22;1827;50.534;8.316;2023-05-16T13:39:23;18.20;99.90
3626;DHT22;1827;50.534;8.316;2023-05-16T13:41:49;17.00;99.90
3626;DHT22;1827;50.534;8.316;2023-05-16T13:44:15;17.00;99.90
3626;DHT22;1827;50.534;8.316;2023-05-16T13:46:41;17.00;99.90
3626;DHT22;1827;50.534;8.316;2023-05-16T13:49:07;17.60;99.90
3626;DHT22;1827;50.534;8.316;2023-05-16T13:51:34;17.80;99.90
3626;DHT22;1827;50.534;8.316;2023-05-16T13:53:59;18.00;99.90
3626;DHT22;1827;50.534;8.316;2023-05-16T13:56:25;16.20;99.90
3626;DHT22;1827;50.534;8.316;2023-05-16T13:58:51;15.40;99.90
3626;DHT22;1827;50.534;8.316;2023-05-16T14:01:16;16.40;99.90
3626;DHT22;1827;50.534;8.316;2023-05-16T14:03:42;17.20;99.90
3626;DHT22;1827;50.534;8.316;2023-05-16T14:06:07;17.00;99.90
3626;DHT22;1827;50.534;8.316;2023-05-16T14:08:34;16.80;99.90
3626;DHT22;1827;50.534;8.316;2023-05-16T14:11:00;17.30;99.90
3626;DHT22;1827;50.534;8.316;2023-05-16T14:13:25;16.20;99.90
3626;DHT22;1827;50.534;8.316;2023-05-16T14:15:51;14.70;99.90
3626;DHT22;1827;50.534;8.316;2023-05-16T14:18:17;15.10;99.90
3626;DHT22;1827;50.534;8.316;2023-05-16T14:20:42;14.00;99.90
3626;DHT22;1827;50.534;8.316;2023-05-16T14:23:08;14.00;99.90
3626;DHT22;1827;50.534;8.316;2023-05-16T14:25:33;14.10;99.90
3626;DHT22;1827;50.534;8.316;2023-05-16T14:27:59;14.70;99.90
3626;DHT22;1827;50.534;8.316;2023-05-16T14:30:24;15.20;99.90
3626;DHT22;1827;50.534;8.316;2023-05-16T14:32:51;14.90;99.90
3626;DHT22;1827;50.534;8.316;2023-05-16T14:35:17;15.00;99.90
3626;DHT22;1827;50.534;8.316;2023-05-16T14:37:42;14.20;99.90
3626;DHT22;1827;50.534;8.316;2023-05-16T14:40:08;14.40;99.90
3626;DHT22;1827;50.534;8.316;2023-05-16T14:42:34;15.50;99.90
3626;DHT22;1827;50.534;8.316;2023-05-16T14:45:00;15.90;99.90
3626;DHT22;1827;50.534;8.316;2023-05-16T14:47:25;17.20;99.90
3626;DHT22;1827;50.534;8.316;2023-05-16T14:49:52;17.70;99.90
3626;DHT22;1827;50.534;8.316;2023-05-16T14:52:18;17.60;99.90
3626;DHT22;1827;50.534;8.316;2023-05-16T14:54:44;17.80;99.90
3626;DHT22;1827;50.534;8.316;2023-05-16T14:57:10;17.70;99.90
3626;DHT22;1827;50.534;8.316;2023-05-16T14:59:35;17.40;99.90
3626;DHT22;1827;50.534;8.316;2023-05-16T15:02:01;17.00;99.90
3626;DHT22;1827;50.534;8.316;2023-05-16T15:04:26;17.50;99.90
3626;DHT22;1827;50.534;8.316;2023-05-16T15:06:52;17.50;99.90
3626;DHT22;1827;50.534;8.316;2023-05-16T15:09:18;16.70;99.90
3626;DHT22;1827;50.534;8.316;2023-05-16T15:11:44;17.00;99.90
3626;DHT22;1827;50.534;8.316;2023-05-16T15:14:10;16.60;99.90
3626;DHT22;1827;50.534;8.316;2023-05-16T15:16:36;16.40;99.90
3626;DHT22;1827;50.534;8.316;2023-05-16T15:19:01;16.80;99.90
3626;DHT22;1827;50.534;8.316;2023-05-16T15:21:27;17.40;99.90
3626;DHT22;1827;50.534;8.316;2023-05-16T15:23:53;18.00;99.90
3626;DHT22;1827;50.534;8.316;2023-05-16T15:26:19;17.90;99.90
3626;DHT22;1827;50.534;8.316;2023-05-16T15:28:47;17.60;99.90
3626;DHT22;1827;50.534;8.316;2023-05-16T15:31:12;17.30;99.90
3626;DHT22;1827;50.534;8.316;2023-05-16T15:33:38;17.20;99.90
3626;DHT22;1827;50.534;8.316;2023-05-16T15:36:04;17.30;99.90
3626;DHT22;1827;50.534;8.316;2023-05-16T15:38:30;17.80;99.90
3626;DHT22;1827;50.534;8.316;2023-05-16T15:40:56;18.20;99.90
3626;DHT22;1827;50.534;8.316;2023-05-16T15:43:22;18.40;99.90
3626;DHT22;1827;50.534;8.316;2023-05-16T15:45:47;18.10;99.90
3626;DHT22;1827;50.534;8.316;2023-05-16T15:48:13;18.00;99.90
3626;DHT22;1827;50.534;8.316;2023-05-16T15:50:38;17.80;99.90
3626;DHT22;1827;50.534;8.316;2023-05-16T15:53:05;17.90;99.90
3626;DHT22;1827;50.534;8.316;2023-05-16T15:55:30;18.00;99.90
3626;DHT22;1827;50.534;8.316;2023-05-16T15:57:56;17.60;99.90
3626;DHT22;1827;50.534;8.316;2023-05-16T16:00:23;17.60;99.90
3626;DHT22;1827;50.534;8.316;2023-05-16T16:02:48;17.60;99.90
3626;DHT22;1827;50.534;8.316;2023-05-16T16:05:14;17.50;99.90
3626;DHT22;1827;50.534;8.316;2023-05-16T16:07:40;17.90;99.90
3626;DHT22;1827;50.534;8.316;2023-05-16T16:10:07;17.70;99.90
3626;DHT22;1827;50.534;8.316;2023-05-16T16:12:32;17.20;99.90
3626;DHT22;1827;50.534;8.316;2023-05-16T16:14:58;16.80;99.90
3626;DHT22;1827;50.534;8.316;2023-05-16T16:17:24;16.20;99.90
3626;DHT22;1827;50.534;8.316;2023-05-16T16:19:49;15.80;99.90
3626;DHT22;1827;50.534;8.316;2023-05-16T16:22:15;15.70;99.90
3626;DHT22;1827;50.534;8.316;2023-05-16T16:24:44;15.40;99.90
3626;DHT22;1827;50.534;8.316;2023-05-16T16:27:09;15.00;99.90